createdAt,value
2023-05-25T00:01:18.868Z,100808.51
2023-05-25T00:03:49.641Z,100802.64
2023-05-25T00:06:20.197Z,100806.61
2023-05-25T00:08:51.879Z,100807.56
2023-05-25T00:11:23.460Z,100807.23
2023-05-25T00:13:53.822Z,100806.20
2023-05-25T00:16:23.407Z,100806.30
2023-05-25T00:18:54.863Z,100799.94
2023-05-25T00:21:25.764Z,100799.85
2023-05-25T00:23:55.651Z,100801.66
2023-05-25T00:26:25.899Z,100798.94
2023-05-25T00:28:55.788Z,100803.14
2023-05-25T00:31:26.128Z,100805.53
2023-05-25T00:33:55.919Z,100799.78
2023-05-25T00:36:26.421Z,100802.55
2023-05-25T00:38:55.966Z,100801.74
2023-05-25T00:41:28.277Z,100795.91
2023-05-25T00:43:58.947Z,100796.52
2023-05-25T00:46:30.479Z,100796.17
2023-05-25T00:49:00.464Z,100796.13
2023-05-25T00:51:36.389Z,100799.39
2023-05-25T00:54:07.360Z,100802.87
2023-05-25T00:56:40.130Z,100808.00
2023-05-25T00:59:12.828Z,100808.00
2023-05-25T01:01:44.762Z,100804.89
2023-05-25T01:04:17.036Z,100811.01
2023-05-25T01:06:49.630Z,100816.57
2023-05-25T01:09:22.665Z,100815.72
2023-05-25T01:11:54.810Z,100811.14
2023-05-25T01:14:25.487Z,100809.64
2023-05-25T01:16:56.488Z,100808.64
2023-05-25T01:19:26.483Z,100808.59
2023-05-25T01:22:07.681Z,100805.02
2023-05-25T01:24:48.131Z,100811.23
2023-05-25T01:27:32.545Z,100806.42
2023-05-25T01:30:05.346Z,100811.59
2023-05-25T01:32:37.390Z,100810.28
2023-05-25T01:35:08.952Z,100810.57
2023-05-25T01:37:46.847Z,100810.57
2023-05-25T01:40:16.993Z,100815.52
2023-05-25T01:42:47.117Z,100819.41
2023-05-25T01:45:17.839Z,100822.71
2023-05-25T01:47:50.974Z,100824.96
2023-05-25T01:50:29.663Z,100823.71
2023-05-25T01:53:03.667Z,100830.11
2023-05-25T01:55:40.176Z,100829.77
2023-05-25T01:58:10.549Z,100833.73
2023-05-25T02:00:42.848Z,100832.02
2023-05-25T02:03:13.497Z,100832.86
2023-05-25T02:05:46.955Z,100839.84
2023-05-25T02:08:16.853Z,100837.33
2023-05-25T02:10:46.717Z,100837.14
2023-05-25T02:13:16.522Z,100831.72
2023-05-25T02:15:46.845Z,100838.22
2023-05-25T02:18:17.881Z,100836.17
2023-05-25T02:20:47.850Z,100843.22
2023-05-25T02:23:18.921Z,100843.22
2023-05-25T02:25:48.566Z,100836.56
2023-05-25T02:28:18.958Z,100843.17
2023-05-25T02:30:48.820Z,100838.98
2023-05-25T02:33:18.972Z,100835.66
2023-05-25T02:35:48.578Z,100842.70
2023-05-25T02:38:18.429Z,100846.20
2023-05-25T02:40:48.264Z,100848.60
2023-05-25T02:43:18.070Z,100849.84
2023-05-25T02:45:47.962Z,100849.53
2023-05-25T02:48:17.608Z,100850.37
2023-05-25T02:50:47.452Z,100845.80
2023-05-25T02:53:17.072Z,100838.77
2023-05-25T02:55:47.170Z,100843.40
2023-05-25T02:58:18.616Z,100843.80
2023-05-25T03:00:54.824Z,100843.80
2023-05-25T03:03:24.768Z,100842.71
2023-05-25T03:05:55.012Z,100842.16
2023-05-25T03:08:25.018Z,100845.41
2023-05-25T03:10:55.425Z,100844.41
2023-05-25T03:13:25.641Z,100847.66
2023-05-25T03:15:55.690Z,100839.30
2023-05-25T03:18:27.003Z,100847.79
2023-05-25T03:20:56.623Z,100848.48
2023-05-25T03:23:26.638Z,100857.86
2023-05-25T03:25:58.126Z,100860.77
2023-05-25T03:28:28.652Z,100864.64
2023-05-25T03:30:58.398Z,100863.23
2023-05-25T03:33:28.252Z,100863.70
2023-05-25T03:35:59.067Z,100854.94
2023-05-25T03:38:29.389Z,100868.31
2023-05-25T03:40:58.956Z,100871.70
2023-05-25T03:43:29.774Z,100877.37
2023-05-25T03:45:59.922Z,100877.37
2023-05-25T03:48:29.897Z,100870.38
2023-05-25T03:50:59.977Z,100870.38
2023-05-25T03:53:29.997Z,100869.61
2023-05-25T03:56:00.798Z,100867.22
2023-05-25T03:58:30.898Z,100877.58
2023-05-25T04:01:02.017Z,100878.89
2023-05-25T04:03:34.048Z,100879.61
2023-05-25T04:06:04.744Z,100881.53
2023-05-25T04:08:34.616Z,100891.28
2023-05-25T04:11:04.600Z,100887.23
2023-05-25T04:13:36.452Z,100895.26
2023-05-25T04:16:09.517Z,100891.35
2023-05-25T04:18:39.471Z,100895.39
2023-05-25T04:21:09.079Z,100901.16
2023-05-25T04:23:39.014Z,100898.39
2023-05-25T04:26:10.347Z,100902.30
2023-05-25T04:28:41.674Z,100902.34
2023-05-25T04:31:15.981Z,100899.79
2023-05-25T04:33:50.643Z,100906.30
2023-05-25T04:36:25.480Z,100910.41
2023-05-25T04:38:55.470Z,100905.38
2023-05-25T04:41:28.064Z,100906.95
2023-05-25T04:44:09.135Z,100909.03
2023-05-25T04:46:31.908Z,100906.14
2023-05-25T04:49:01.818Z,100905.71
2023-05-25T04:51:32.454Z,100905.11
2023-05-25T04:54:02.061Z,100902.80
2023-05-25T04:56:32.069Z,100907.61
2023-05-25T04:59:03.661Z,100911.02
2023-05-25T05:01:34.496Z,100906.20
2023-05-25T05:04:06.476Z,100908.14
2023-05-25T05:06:37.264Z,100909.34
2023-05-25T05:09:07.546Z,100913.66
2023-05-25T05:11:37.555Z,100910.22
2023-05-25T05:14:08.525Z,100913.69
2023-05-25T05:16:38.317Z,100911.45
2023-05-25T05:19:08.220Z,100915.56
2023-05-25T05:21:38.474Z,100927.06
2023-05-25T05:24:09.097Z,100921.47
2023-05-25T05:26:56.260Z,100914.77
2023-05-25T05:29:13.660Z,100916.31
2023-05-25T05:31:43.777Z,100915.63
2023-05-25T05:34:13.738Z,100921.18
2023-05-25T05:36:56.627Z,100925.16
2023-05-25T05:39:15.657Z,100922.25
2023-05-25T05:41:45.488Z,100924.50
2023-05-25T05:44:15.658Z,100923.57
2023-05-25T05:46:46.068Z,100923.57
2023-05-25T05:49:16.050Z,100917.73
2023-05-25T05:51:45.836Z,100921.03
2023-05-25T05:54:16.218Z,100924.97
2023-05-25T05:56:46.201Z,100923.27
2023-05-25T05:59:16.116Z,100917.41
2023-05-25T06:01:46.449Z,100925.06
2023-05-25T06:04:16.553Z,100925.44
2023-05-25T06:06:46.432Z,100922.22
2023-05-25T06:09:16.228Z,100920.84
2023-05-25T06:11:46.164Z,100917.85
2023-05-25T06:14:15.967Z,100919.03
2023-05-25T06:16:46.265Z,100926.53
2023-05-25T06:19:16.127Z,100919.23
2023-05-25T06:21:46.291Z,100924.23
2023-05-25T06:24:16.728Z,100924.23
2023-05-25T06:26:46.933Z,100923.47
2023-05-25T06:29:17.522Z,100922.11
2023-05-25T06:31:47.746Z,100923.12
2023-05-25T06:34:17.480Z,100924.06
2023-05-25T06:36:48.214Z,100924.89
2023-05-25T06:39:18.049Z,100924.78
2023-05-25T06:41:47.966Z,100923.91
2023-05-25T06:44:19.768Z,100925.69
2023-05-25T06:46:50.018Z,100925.80
2023-05-25T06:49:19.882Z,100925.80
2023-05-25T06:51:51.077Z,100923.66
2023-05-25T06:54:20.717Z,100918.73
2023-05-25T06:56:50.871Z,100914.33
2023-05-25T06:59:20.477Z,100919.70
2023-05-25T07:01:50.943Z,100914.28
2023-05-25T07:04:22.316Z,100917.05
2023-05-25T07:06:52.564Z,100920.66
2023-05-25T07:09:22.270Z,100926.66
2023-05-25T07:11:52.143Z,100914.41
2023-05-25T07:14:22.181Z,100914.66
2023-05-25T07:16:52.071Z,100908.33
2023-05-25T07:19:21.947Z,100903.42
2023-05-25T07:21:51.908Z,100909.45
2023-05-25T07:24:21.443Z,100909.97
2023-05-25T07:26:51.304Z,100901.59
2023-05-25T07:29:20.957Z,100912.52
2023-05-25T07:31:50.943Z,100918.26
2023-05-25T07:34:20.991Z,100918.26
2023-05-25T07:36:50.830Z,100924.34
2023-05-25T07:39:20.402Z,100925.95
2023-05-25T07:41:50.243Z,100926.62
2023-05-25T07:44:19.836Z,100932.33
2023-05-25T07:46:49.695Z,100930.55
2023-05-25T07:49:19.291Z,100940.59
2023-05-25T07:51:49.215Z,100936.45
2023-05-25T07:54:18.856Z,100943.11
2023-05-25T07:56:48.729Z,100936.10
2023-05-25T07:59:18.612Z,100941.22
2023-05-25T08:01:48.576Z,100940.03
2023-05-25T08:04:18.236Z,100935.30
2023-05-25T08:06:48.122Z,100941.26
2023-05-25T08:09:17.739Z,100937.74
2023-05-25T08:11:47.810Z,100938.58
2023-05-25T08:14:17.912Z,100935.31
2023-05-25T08:16:47.769Z,100933.61
2023-05-25T08:19:17.622Z,100933.73
2023-05-25T08:21:47.763Z,100931.20
2023-05-25T08:24:17.331Z,100931.69
2023-05-25T08:26:54.778Z,100932.41
2023-05-25T08:29:19.998Z,100928.27
2023-05-25T08:31:50.628Z,100926.44
2023-05-25T08:34:20.833Z,100926.95
2023-05-25T08:36:50.962Z,100931.31
2023-05-25T08:39:20.658Z,100931.38
2023-05-25T08:41:54.381Z,100932.96
2023-05-25T08:44:24.189Z,100937.39
2023-05-25T08:46:56.072Z,100935.45
2023-05-25T08:49:28.084Z,100938.89
2023-05-25T08:51:57.973Z,100930.52
2023-05-25T08:54:31.248Z,100934.60
2023-05-25T08:57:13.232Z,100932.91
2023-05-25T08:59:54.732Z,100932.91
2023-05-25T09:02:33.468Z,100935.40
2023-05-25T09:05:03.864Z,100941.56
2023-05-25T09:07:34.649Z,100941.41
2023-05-25T09:10:04.975Z,100945.30
2023-05-25T09:12:36.430Z,100950.39
2023-05-25T09:15:08.019Z,100948.05
2023-05-25T09:17:38.471Z,100950.16
2023-05-25T09:20:11.955Z,100950.26
2023-05-25T09:22:42.802Z,100950.01
2023-05-25T09:25:14.425Z,100953.05
2023-05-25T09:27:46.243Z,100946.73
2023-05-25T09:30:16.939Z,100948.56
2023-05-25T09:32:46.896Z,100950.67
2023-05-25T09:35:17.157Z,100919.24
2023-05-25T09:37:49.258Z,100924.72
2023-05-25T09:40:19.095Z,100924.72
2023-05-25T09:42:49.862Z,100934.69
2023-05-25T09:45:19.860Z,100945.75
2023-05-25T09:47:49.887Z,100952.22
2023-05-25T09:50:20.154Z,100943.14
2023-05-25T09:52:50.274Z,100941.52
2023-05-25T09:55:20.948Z,100943.98
2023-05-25T09:57:55.616Z,100942.21
2023-05-25T10:00:25.972Z,100944.36
2023-05-25T10:02:55.810Z,100939.06
2023-05-25T10:05:29.160Z,100920.16
2023-05-25T10:07:59.587Z,100920.16
2023-05-25T10:10:30.461Z,100936.66
2023-05-25T10:13:01.402Z,100929.89
2023-05-25T10:15:32.482Z,100929.89
2023-05-25T10:18:03.551Z,100939.98
2023-05-25T10:20:35.022Z,100935.52
2023-05-25T10:23:16.924Z,100932.20
2023-05-25T10:25:50.810Z,100930.07
2023-05-25T10:28:32.039Z,100925.20
2023-05-25T10:31:02.258Z,100926.64
2023-05-25T10:33:34.105Z,100930.82
2023-05-25T10:38:37.237Z,100911.54
2023-05-25T10:41:09.182Z,100911.54
2023-05-25T10:43:41.110Z,100928.92
2023-05-25T10:46:12.631Z,100928.48
2023-05-25T10:48:48.642Z,100925.30
2023-05-25T10:51:23.253Z,100921.87
2023-05-25T10:54:02.476Z,100918.17
2023-05-25T10:56:32.615Z,100922.27
2023-05-25T10:59:02.525Z,100926.31
2023-05-25T11:01:34.516Z,100925.11
2023-05-25T11:04:13.064Z,100917.83
2023-05-25T11:06:46.371Z,100917.55
2023-05-25T11:09:27.681Z,100917.78
2023-05-25T11:12:03.642Z,100909.07
2023-05-25T11:14:37.073Z,100904.84
2023-05-25T11:17:12.180Z,100901.66
2023-05-25T11:19:52.968Z,100900.58
2023-05-25T11:22:37.485Z,100899.81
2023-05-25T11:25:37.482Z,100893.45
2023-05-25T11:28:09.008Z,100889.09
2023-05-25T11:30:43.374Z,100890.67
2023-05-25T11:33:13.497Z,100891.72
2023-05-25T11:35:45.406Z,100892.78
2023-05-25T11:38:16.143Z,100876.19
2023-05-25T11:40:45.754Z,100876.19
2023-05-25T11:43:16.328Z,100892.06
2023-05-25T11:45:47.853Z,100886.88
2023-05-25T11:48:17.563Z,100896.55
2023-05-25T11:50:47.591Z,100890.63
2023-05-25T11:53:17.542Z,100891.64
2023-05-25T11:55:55.640Z,100890.53
2023-05-25T11:58:23.249Z,100892.52
2023-05-25T12:00:53.179Z,100887.30
2023-05-25T12:03:33.503Z,100886.89
2023-05-25T12:06:04.529Z,100885.89
2023-05-25T12:08:34.246Z,100884.40
2023-05-25T12:11:04.263Z,100886.77
2023-05-25T12:13:34.112Z,100885.20
2023-05-25T12:16:04.034Z,100886.12
2023-05-25T12:18:33.979Z,100880.02
2023-05-25T12:21:05.920Z,100886.96
2023-05-25T12:23:36.421Z,100877.79
2023-05-25T12:26:14.747Z,100880.21
2023-05-25T12:29:08.430Z,100874.84
2023-05-25T12:31:39.370Z,100871.55
2023-05-25T12:34:16.988Z,100872.34
2023-05-25T12:36:55.569Z,100868.23
2023-05-25T12:39:38.705Z,100863.75
2023-05-25T12:42:16.670Z,100866.05
2023-05-25T12:44:47.633Z,100859.67
2023-05-25T12:47:23.773Z,100856.17
2023-05-25T12:50:14.400Z,100854.11
2023-05-25T12:52:46.619Z,100854.39
2023-05-25T12:55:27.979Z,100852.81
2023-05-25T12:57:59.937Z,100851.39
2023-05-25T13:00:35.216Z,100845.66
2023-05-25T13:03:08.080Z,100848.58
2023-05-25T13:05:39.402Z,100850.00
2023-05-25T13:08:09.304Z,100850.00
2023-05-25T13:10:39.769Z,100847.55
2023-05-25T13:13:09.396Z,100837.20
2023-05-25T13:15:39.400Z,100843.19
2023-05-25T13:18:09.066Z,100816.80
2023-05-25T13:20:38.791Z,100816.80
2023-05-25T13:23:08.865Z,100835.64
2023-05-25T13:25:38.747Z,100832.78
2023-05-25T13:28:08.312Z,100823.61
2023-05-25T13:30:38.449Z,100828.78
2023-05-25T13:33:08.333Z,100823.61
2023-05-25T13:35:39.774Z,100821.80
2023-05-25T13:38:10.495Z,100823.03
2023-05-25T13:40:40.094Z,100821.50
2023-05-25T13:43:09.720Z,100815.52
2023-05-25T13:45:39.982Z,100809.70
2023-05-25T13:48:09.720Z,100813.09
2023-05-25T13:50:39.603Z,100814.31
2023-05-25T13:53:09.157Z,100816.47
2023-05-25T13:55:39.194Z,100808.08
2023-05-25T13:58:08.813Z,100802.70
2023-05-25T14:00:38.980Z,100804.39
2023-05-25T14:03:08.953Z,100801.51
2023-05-25T14:05:38.775Z,100800.50
2023-05-25T14:08:08.517Z,100803.55
2023-05-25T14:10:38.934Z,100796.80
2023-05-25T14:13:09.149Z,100794.64
2023-05-25T14:15:39.105Z,100794.55
2023-05-25T14:18:09.118Z,100798.09
2023-05-25T14:20:40.593Z,100789.09
2023-05-25T14:23:13.186Z,100759.79
2023-05-25T14:25:42.417Z,100759.79
2023-05-25T14:28:12.124Z,100774.87
2023-05-25T14:30:42.131Z,100774.77
2023-05-25T14:33:13.772Z,100774.00
2023-05-25T14:35:44.003Z,100784.85
2023-05-25T14:38:14.052Z,100780.81
2023-05-25T14:40:43.762Z,100778.96
2023-05-25T14:43:13.492Z,100781.66
2023-05-25T14:45:43.572Z,100779.03
2023-05-25T14:48:16.585Z,100773.55
2023-05-25T14:50:45.069Z,100778.73
2023-05-25T14:53:15.074Z,100773.42
2023-05-25T14:55:45.176Z,100764.12
2023-05-25T14:58:15.173Z,100764.66
2023-05-25T15:00:45.028Z,100762.61
2023-05-25T15:03:14.727Z,100762.61
2023-05-25T15:05:46.261Z,100763.95
2023-05-25T15:08:16.206Z,100758.21
2023-05-25T15:10:45.756Z,100760.73
2023-05-25T15:13:15.959Z,100752.59
2023-05-25T15:15:45.796Z,100767.94
2023-05-25T15:18:16.048Z,100767.94
2023-05-25T15:20:45.758Z,100769.98
2023-05-25T15:23:16.553Z,100766.17
2023-05-25T15:25:46.123Z,100775.11
2023-05-25T15:28:16.224Z,100754.92
2023-05-25T15:30:45.920Z,100766.55
2023-05-25T15:33:16.147Z,100771.88
2023-05-25T15:35:46.187Z,100770.73
2023-05-25T15:38:15.943Z,100766.27
2023-05-25T15:40:45.806Z,100766.13
2023-05-25T15:43:15.654Z,100770.84
2023-05-25T15:45:45.644Z,100763.17
2023-05-25T15:48:15.749Z,100759.83
2023-05-25T15:50:45.662Z,100764.53
2023-05-25T15:53:15.481Z,100752.46
2023-05-25T15:55:47.292Z,100745.47
2023-05-25T15:58:17.806Z,100747.70
2023-05-25T16:00:47.766Z,100745.01
2023-05-25T16:03:18.427Z,100749.52
2023-05-25T16:05:48.268Z,100744.80
2023-05-25T16:08:19.152Z,100743.75
2023-05-25T16:10:49.364Z,100744.98
2023-05-25T16:13:18.948Z,100745.44
2023-05-25T16:15:48.897Z,100748.98
2023-05-25T16:18:18.570Z,100745.70
2023-05-25T16:20:50.217Z,100740.94
2023-05-25T16:23:19.799Z,100741.78
2023-05-25T16:25:50.714Z,100738.58
2023-05-25T16:28:20.343Z,100738.62
2023-05-25T16:30:50.252Z,100738.11
2023-05-25T16:33:19.909Z,100737.74
2023-05-25T16:35:50.932Z,100737.61
2023-05-25T16:38:21.422Z,100736.59
2023-05-25T16:40:50.996Z,100733.38
2023-05-25T16:43:23.102Z,100735.89
2023-05-25T16:45:54.932Z,100732.58
2023-05-25T16:48:32.302Z,100739.27
2023-05-25T16:51:13.594Z,100731.88
2023-05-25T16:53:44.086Z,100736.45
2023-05-25T16:56:15.452Z,100733.23
2023-05-25T16:58:45.370Z,100734.27
2023-05-25T17:01:16.272Z,100729.88
2023-05-25T17:03:46.263Z,100727.20
2023-05-25T17:06:16.221Z,100728.20
2023-05-25T17:08:47.298Z,100726.48
2023-05-25T17:11:16.268Z,100730.25
2023-05-25T17:13:45.859Z,100720.59
2023-05-25T17:16:16.683Z,100724.16
2023-05-25T17:18:46.648Z,100720.64
2023-05-25T17:21:16.532Z,100727.50
2023-05-25T17:23:47.373Z,100728.00
2023-05-25T17:26:17.932Z,100729.80
2023-05-25T17:28:53.647Z,100710.16
2023-05-25T17:31:23.371Z,100710.16
2023-05-25T17:33:53.234Z,100728.99
2023-05-25T17:36:24.017Z,100727.67
2023-05-25T17:38:53.940Z,100727.45
2023-05-25T17:41:23.660Z,100730.31
2023-05-25T17:43:53.580Z,100727.78
2023-05-25T17:46:23.204Z,100733.13
2023-05-25T17:48:53.934Z,100742.13
2023-05-25T17:51:23.846Z,100729.14
2023-05-25T17:53:53.834Z,100728.75
2023-05-25T17:56:23.823Z,100729.13
2023-05-25T17:58:53.466Z,100722.75
2023-05-25T18:01:23.406Z,100720.17
2023-05-25T18:03:54.133Z,100726.52
2023-05-25T18:06:24.094Z,100711.27
2023-05-25T18:08:54.102Z,100712.83
2023-05-25T18:11:24.135Z,100712.83
2023-05-25T18:13:57.329Z,100728.17
2023-05-25T18:16:27.403Z,100730.88
2023-05-25T18:18:57.416Z,100734.12
2023-05-25T18:21:27.261Z,100735.03
2023-05-25T18:24:02.268Z,100737.58
2023-05-25T18:26:32.161Z,100730.14
2023-05-25T18:29:02.479Z,100740.71
2023-05-25T18:31:36.610Z,100736.59
2023-05-25T18:34:08.745Z,100740.78
2023-05-25T18:36:38.648Z,100746.06
2023-05-25T18:39:08.660Z,100752.89
2023-05-25T18:41:39.903Z,100750.08
2023-05-25T18:44:09.765Z,100750.79
2023-05-25T18:46:41.480Z,100746.17
2023-05-25T18:49:11.526Z,100749.13
2023-05-25T18:51:44.535Z,100751.17
2023-05-25T18:54:14.420Z,100754.11
2023-05-25T18:56:44.321Z,100758.66
2023-05-25T18:59:14.301Z,100759.64
2023-05-25T19:01:44.310Z,100767.48
2023-05-25T19:04:14.094Z,100763.52
2023-05-25T19:06:45.407Z,100773.91
2023-05-25T19:09:15.119Z,100773.59
2023-05-25T19:11:44.835Z,100774.73
2023-05-25T19:14:14.735Z,100778.25
2023-05-25T19:16:48.026Z,100774.72
2023-05-25T19:19:16.450Z,100780.36
2023-05-25T19:21:46.654Z,100779.63
2023-05-25T19:24:19.083Z,100778.73
2023-05-25T19:26:49.897Z,100784.34
2023-05-25T19:29:19.841Z,100786.66
2023-05-25T19:31:49.796Z,100788.77
2023-05-25T19:34:19.388Z,100791.19
2023-05-25T19:36:56.426Z,100787.86
2023-05-25T19:39:21.845Z,100794.54
2023-05-25T19:41:50.801Z,100795.52
2023-05-25T19:44:21.256Z,100799.06
2023-05-25T19:46:51.135Z,100796.41
2023-05-25T19:49:21.587Z,100802.70
2023-05-25T19:51:51.251Z,100790.64
2023-05-25T19:54:20.851Z,100798.50
2023-05-25T19:56:50.792Z,100809.28
2023-05-25T19:59:27.547Z,100804.81
2023-05-25T20:01:58.199Z,100804.68
2023-05-25T20:04:34.231Z,100806.23
2023-05-25T20:07:04.125Z,100811.56
2023-05-25T20:09:35.189Z,100811.92
2023-05-25T20:12:07.648Z,100810.17
2023-05-25T20:14:37.821Z,100812.59
2023-05-25T20:17:07.410Z,100815.81
2023-05-25T20:19:37.290Z,100816.31
2023-05-25T20:22:08.196Z,100822.31
2023-05-25T20:24:38.131Z,100824.21
2023-05-25T20:27:08.030Z,100823.73
2023-05-25T20:29:37.958Z,100818.77
2023-05-25T20:32:08.672Z,100827.55
2023-05-25T20:34:37.625Z,100821.84
2023-05-25T20:37:07.133Z,100816.64
2023-05-25T20:39:37.680Z,100825.42
2023-05-25T20:42:07.422Z,100827.56
2023-05-25T20:44:39.423Z,100827.56
2023-05-25T20:47:10.313Z,100824.80
2023-05-25T20:49:39.178Z,100828.62
2023-05-25T20:52:08.671Z,100831.98
2023-05-25T20:54:40.206Z,100835.71
2023-05-25T20:57:12.537Z,100835.10
2023-05-25T20:59:42.435Z,100829.58
2023-05-25T21:02:12.321Z,100826.77
2023-05-25T21:04:42.473Z,100828.77
2023-05-25T21:07:12.516Z,100831.72
2023-05-25T21:09:42.192Z,100831.56
2023-05-25T21:12:13.070Z,100838.25
2023-05-25T21:14:42.940Z,100831.41
2023-05-25T21:17:12.714Z,100838.49
2023-05-25T21:19:42.679Z,100834.24
2023-05-25T21:22:13.167Z,100834.24
2023-05-25T21:24:42.792Z,100840.33
2023-05-25T21:27:13.824Z,100844.39
2023-05-25T21:29:43.703Z,100844.39
2023-05-25T21:32:14.532Z,100845.17
2023-05-25T21:34:44.420Z,100846.40
2023-05-25T21:40:28.731Z,100844.84
2023-05-25T21:42:58.442Z,100847.56
2023-05-25T21:45:28.696Z,100844.84
2023-05-25T21:47:58.636Z,100842.44
2023-05-25T21:50:28.621Z,100842.44
2023-05-25T21:52:58.533Z,100840.84
2023-05-25T21:55:28.295Z,100849.59
2023-05-25T21:57:58.176Z,100850.84
2023-05-25T22:00:28.213Z,100854.92
2023-05-25T22:02:58.443Z,100854.17
2023-05-25T22:05:30.154Z,100850.95
2023-05-25T22:08:00.052Z,100855.50
2023-05-25T22:10:31.955Z,100852.67
2023-05-25T22:13:03.642Z,100856.84
2023-05-25T22:15:32.496Z,100864.04
2023-05-25T22:18:02.589Z,100861.05
2023-05-25T22:20:32.552Z,100860.30
2023-05-25T22:23:02.548Z,100859.17
2023-05-25T22:25:32.438Z,100845.22
2023-05-25T22:28:02.298Z,100845.22
2023-05-25T22:30:32.222Z,100866.66
2023-05-25T22:33:03.208Z,100870.83
2023-05-25T22:35:33.141Z,100875.38
2023-05-25T22:38:03.212Z,100873.20
2023-05-25T22:40:33.137Z,100877.92
2023-05-25T22:43:03.055Z,100876.80
2023-05-25T22:45:37.677Z,100877.22
2023-05-25T22:48:07.942Z,100881.86
2023-05-25T22:50:37.864Z,100873.26
2023-05-25T22:53:07.739Z,100873.27
2023-05-25T22:55:37.905Z,100877.99
2023-05-25T22:58:07.563Z,100868.18
2023-05-25T23:00:37.594Z,100872.72
2023-05-25T23:03:07.362Z,100866.86
2023-05-25T23:05:37.571Z,100865.73
2023-05-25T23:08:07.295Z,100866.48
2023-05-25T23:10:37.175Z,100869.70
2023-05-25T23:13:07.814Z,100863.69
2023-05-25T23:15:39.132Z,100862.94
2023-05-25T23:18:09.075Z,100867.75
2023-05-25T23:20:40.373Z,100868.25
2023-05-25T23:23:10.523Z,100861.36
2023-05-25T23:25:41.298Z,100867.69
2023-05-25T23:28:11.232Z,100862.67
2023-05-25T23:30:41.350Z,100860.22
2023-05-25T23:33:11.472Z,100860.49
2023-05-25T23:35:42.664Z,100860.20
2023-05-25T23:38:13.062Z,100860.20
2023-05-25T23:40:43.220Z,100862.22
2023-05-25T23:43:12.951Z,100860.42
2023-05-25T23:45:47.397Z,100866.18
2023-05-25T23:48:17.439Z,100864.39
2023-05-25T23:50:47.372Z,100859.48
2023-05-25T23:53:17.018Z,100861.15
2023-05-25T23:55:47.008Z,100862.66
2023-05-25T23:58:17.063Z,100863.34
